| time (UTC) | temp F | wind direction | speed MPH | gust MPH | rain 1hr in | rain 24hr in | rain mn in | humidity % | barometer mb |
| 20260903053008 | 69 | 295 | 1.0 | 4.0 | 0.01 | 0.73 | 0.01 | 92 | 1013.8 |
| 20260903051508 | 69 | 263 | 1.0 | 3.0 | 0.01 | 0.73 | 0.01 | 93 | 1013.9 |
| 20260903050004 | 69 | 315 | 1.0 | 4.0 | 0.00 | 0.72 | 0.00 | 92 | 1014.0 |
| 20260903044511 | 69 | 254 | 1.0 | 5.0 | 0.00 | 0.72 | 0.00 | 92 | 1014.0 |
| 20260903043013 | 69 | 250 | 1.0 | 5.0 | 0.00 | 0.72 | 0.00 | 93 | 1013.9 |
| 20260903041511 | 69 | 273 | 1.0 | 6.0 | 0.00 | 0.72 | 0.00 | 1013.6 | |
| 20260903040013 | 69 | 289 | 0.0 | 2.0 | 0.00 | 0.72 | 0.00 | 93 | 1013.4 |
| 20260903034508 | 69 | 259 | 0.0 | 2.0 | 0.00 | 0.72 | 0.72 | 93 | 1013.0 |
| 20260903033008 | 69 | 259 | 0.0 | 2.0 | 0.00 | 0.72 | 0.72 | 93 | 1013.4 |
| 20260903031508 | 69 | 271 | 0.0 | 4.0 | 0.00 | 0.72 | 0.72 | 1013.7 | |
| 20260903030012 | 69 | 277 | 0.0 | 2.0 | 0.01 | 0.72 | 0.72 | 93 | 1014.0 |
| 20260903024510 | 69 | 249 | 0.0 | 2.0 | 0.01 | 0.72 | 0.72 | 93 | 1014.6 |
| 20260903023018 | 70 | 249 | 0.0 | 2.0 | 0.11 | 0.72 | 0.72 | 93 | 1014.6 |
| 20260903021510 | 70 | 249 | 1.0 | 4.0 | 0.39 | 0.72 | 0.72 | 93 | 1014.6 |
| 20260903020021 | 70 | 248 | 1.0 | 3.0 | 0.38 | 0.71 | 0.71 | 93 | 1014.6 |
| 20260903014509 | 70 | 244 | 2.0 | 13.0 | 0.38 | 0.71 | 0.71 | 92 | 1014.7 |
| 20260903013008 | 70 | 257 | 3.0 | 13.0 | 0.28 | 0.61 | 0.61 | 93 | 1015.2 |
| 20260903011510 | 70 | 286 | 0.0 | 2.0 | 0.03 | 0.33 | 0.33 | 92 | 1013.5 |
| 20260903010014 | 70 | 246 | 0.0 | 3.0 | 0.05 | 0.33 | 0.33 | 92 | 1014.5 |
| 20260903004512 | 70 | 136 | 0.0 | 2.0 | 0.07 | 0.33 | 0.33 | 92 | 1013.9 |
| 20260903003008 | 70 | 136 | 0.0 | 3.0 | 0.08 | 0.33 | 0.33 | 91 | 1013.1 |
| 20260903001514 | 71 | 55 | 1.0 | 6.0 | 0.26 | 0.30 | 0.30 | 91 | 1013.3 |
| 20260903000018 | 71 | 81 | 3.0 | 11.0 | 0.27 | 0.28 | 0.28 | 90 | 1013.1 |
| 20260902234511 | 73 | 12 | 6.0 | 17.0 | 0.25 | 0.26 | 0.26 | 87 | 1012.2 |
| 20260902233013 | 73 | 24 | 6.0 | 15.0 | 0.24 | 0.25 | 0.25 | 89 | 1013.3 |
| 20260902231514 | 77 | 305 | 11.0 | 22.0 | 0.03 | 0.04 | 0.04 | 87 | 1014.9 |
| 20260902230010 | 78 | 40 | 2.0 | 8.0 | 0.00 | 0.01 | 0.01 | 86 | 1013.1 |
| 20260902224509 | 78 | 188 | 2.0 | 9.0 | 0.00 | 0.01 | 0.01 | 85 | 1012.6 |
| 20260902223020 | 79 | 300 | 2.0 | 9.0 | 0.00 | 0.01 | 0.01 | 82 | 1013.1 |
| 20260902221517 | 80 | 250 | 1.0 | 6.0 | 0.00 | 0.01 | 0.01 | 81 | 1012.9 |
| 20260902220041 | 81 | 175 | 2.0 | 10.0 | 0.00 | 0.01 | 0.01 | 80 | 1012.7 |
| 20260902214531 | 82 | 10 | 0.0 | 3.0 | 0.00 | 0.01 | 0.01 | 79 | 1012.1 |
| 20260902213011 | 83 | 307 | 1.0 | 5.0 | 0.00 | 0.01 | 0.01 | 78 | 1011.9 |
| 20260902211513 | 82 | 263 | 0.0 | 2.0 | 0.00 | 0.01 | 0.01 | 79 | 1012.8 |
| 20260902210014 | 80 | 277 | 2.0 | 5.0 | 0.00 | 0.01 | 0.01 | 81 | 1013.0 |
| 20260902204513 | 80 | 229 | 1.0 | 5.0 | 0.00 | 0.01 | 0.01 | 80 | 1013.4 |
| 20260902203015 | 81 | 342 | 1.0 | 7.0 | 0.00 | 0.01 | 0.01 | 79 | 1014.0 |
| 20260902201528 | 82 | 238 | 2.0 | 5.0 | 0.00 | 0.01 | 0.01 | 77 | 1014.3 |
| 20260902200008 | 82 | 324 | 3.0 | 9.0 | 0.00 | 0.01 | 0.01 | 76 | 1014.6 |
| 20260902194514 | 82 | 263 | 2.0 | 11.0 | 0.00 | 0.01 | 0.01 | 75 | 1014.9 |
| 20260902193013 | 84 | 267 | 4.0 | 11.0 | 0.00 | 0.01 | 0.01 | 71 | 1014.8 |
| 20260902191520 | 85 | 292 | 4.0 | 11.0 | 0.00 | 0.01 | 0.01 | 70 | 1014.8 |
| 20260902190014 | 83 | 240 | 1.0 | 6.0 | 0.00 | 0.01 | 0.01 | 72 | 1015.0 |
| 20260902184518 | 83 | 250 | 1.0 | 10.0 | 0.00 | 0.01 | 0.01 | 72 | 1015.0 |
| 20260902183016 | 83 | 304 | 2.0 | 14.0 | 0.00 | 0.01 | 0.01 | 71 | 1014.9 |
| 20260902181507 | 83 | 256 | 3.0 | 9.0 | 0.00 | 0.01 | 0.01 | 70 | 1015.0 |
| 20260902180013 | 83 | 277 | 4.0 | 7.0 | 0.00 | 0.01 | 0.01 | 73 | 1014.9 |
| 20260902174519 | 81 | 246 | 2.0 | 5.0 | 0.00 | 0.01 | 0.01 | 80 | 1015.2 |
| 20260902173020 | 79 | 251 | 2.0 | 5.0 | 0.00 | 0.01 | 0.01 | 82 | 1015.6 |
| 20260902171516 | 76 | 263 | 0.0 | 2.0 | 0.01 | 0.01 | 0.01 | 88 | 1016.0 |
| 20260902170013 | 75 | 347 | 1.0 | 4.0 | 0.01 | 0.01 | 0.01 | 87 | 1016.3 |
| 20260902164514 | 76 | 346 | 2.0 | 4.0 | 0.01 | 0.01 | 0.01 | 87 | 1016.3 |
| 20260902163008 | 76 | 280 | 0.0 | 7.0 | 0.01 | 0.01 | 0.01 | 85 | 1015.7 |
| 20260902161513 | 78 | 275 | 1.0 | 5.0 | 0.00 | 0.00 | 0.00 | 81 | 1015.6 |
| 20260902160016 | 81 | 340 | 4.0 | 10.0 | 0.00 | 0.00 | 0.00 | 76 | 1015.9 |
| 20260902154515 | 80 | 341 | 2.0 | 5.0 | 0.00 | 0.00 | 0.00 | 77 | 1015.8 |
| 20260902153032 | 80 | 16 | 1.0 | 5.0 | 0.00 | 0.00 | 0.00 | 78 | 1015.9 |
| 20260902151515 | 78 | 281 | 1.0 | 4.0 | 0.00 | 0.00 | 0.00 | 79 | 1016.2 |
| 20260902150016 | 77 | 264 | 3.0 | 6.0 | 0.00 | 0.00 | 0.00 | 81 | 1016.6 |
| 20260902144514 | 77 | 186 | 1.0 | 2.0 | 0.00 | 0.00 | 0.00 | 83 | 1016.7 |
| 20260902143014 | 76 | 226 | 1.0 | 4.0 | 0.00 | 0.00 | 0.00 | 84 | 1016.6 |
| 20260902141514 | 76 | 201 | 1.0 | 3.0 | 0.00 | 0.00 | 0.00 | 86 | 1016.6 |
| 20260902140018 | 74 | 244 | 0.0 | 2.0 | 0.00 | 0.00 | 0.00 | 87 | 1016.8 |
| 20260902134516 | 73 | 191 | 0.0 | 2.0 | 0.00 | 0.00 | 0.00 | 88 | 1016.7 |
| 20260902133018 | 72 | 190 | 1.0 | 2.0 | 0.00 | 0.00 | 0.00 | 88 | 1016.7 |
| 20260902131515 | 72 | 153 | 1.0 | 4.0 | 0.00 | 0.00 | 0.00 | 87 | 1016.7 |
| 20260902130013 | 73 | 178 | 2.0 | 5.0 | 0.00 | 0.00 | 0.00 | 86 | 1017.0 |
| 20260902124520 | 74 | 89 | 1.0 | 7.0 | 0.00 | 0.00 | 0.00 | 88 | 1017.3 |
| 20260902123015 | 74 | 268 | 1.0 | 9.0 | 0.00 | 0.00 | 0.00 | 88 | 1016.9 |
| 20260902121516 | 74 | 252 | 0.0 | 8.0 | 0.00 | 0.00 | 0.00 | 88 | 1015.7 |
| 20260902120020 | 74 | 261 | 3.0 | 8.0 | 0.00 | 0.00 | 0.00 | 89 | 1015.0 |
| 20260902114528 | 73 | 292 | 1.0 | 3.0 | 0.00 | 0.00 | 0.00 | 90 | 1015.2 |
| 20260902113017 | 73 | 255 | 0.0 | 3.0 | 0.00 | 0.00 | 0.00 | 90 | 1014.6 |
| 20260902111513 | 72 | 293 | 0.0 | 5.0 | 0.00 | 0.00 | 0.00 | 91 | 1015.0 |
| 20260902110012 | 72 | 271 | 0.0 | 2.0 | 0.00 | 0.00 | 0.00 | 93 | 1014.5 |
| 20260902104515 | 71 | 200 | 0.0 | 0.0 | 0.00 | 0.00 | 0.00 | 94 | 1014.4 |
| 20260902103016 | 71 | 200 | 0.0 | 0.0 | 0.00 | 0.00 | 0.00 | 94 | 1014.3 |
| 20260902101515 | 71 | 200 | 0.0 | 0.0 | 0.00 | 0.00 | 0.00 | 94 | 1014.4 |
| 20260902100018 | 71 | 200 | 0.0 | 0.0 | 0.00 | 0.00 | 0.00 | 94 | 1014.2 |
| 20260902094518 | 71 | 200 | 0.0 | 0.0 | 0.00 | 0.00 | 0.00 | 94 | 1014.6 |
| 20260902093015 | 71 | 200 | 0.0 | 0.0 | 0.00 | 0.00 | 0.00 | 94 | 1014.6 |
| 20260902091517 | 71 | 200 | 0.0 | 0.0 | 0.00 | 0.00 | 0.00 | 94 | 1014.9 |
| 20260902090010 | 71 | 200 | 0.0 | 0.0 | 0.00 | 0.00 | 0.00 | 94 | 1015.1 |
| 20260902084517 | 71 | 200 | 0.0 | 0.0 | 0.00 | 0.00 | 0.00 | 94 | 1015.2 |
| 20260902083019 | 71 | 200 | 0.0 | 0.0 | 0.00 | 0.00 | 0.00 | 94 | 1015.2 |
| 20260902081516 | 71 | 200 | 0.0 | 0.0 | 0.00 | 0.00 | 0.00 | 94 | 1015.5 |
| 20260902080018 | 71 | 200 | 0.0 | 0.0 | 0.00 | 0.00 | 0.00 | 94 | 1015.5 |
| 20260902074517 | 71 | 200 | 0.0 | 0.0 | 0.00 | 0.00 | 0.00 | 94 | 1015.7 |
| 20260902073014 | 71 | 200 | 0.0 | 0.0 | 0.00 | 0.00 | 0.00 | 94 | 1015.6 |
| 20260902071510 | 71 | 200 | 0.0 | 0.0 | 0.00 | 0.00 | 0.00 | 94 | 1015.7 |
| 20260902070017 | 71 | 200 | 0.0 | 0.0 | 0.00 | 0.00 | 0.00 | 94 | 1015.8 |
| 20260902064534 | 71 | 200 | 0.0 | 0.0 | 0.00 | 0.00 | 0.00 | 94 | 1015.9 |
| 20260902063017 | 70 | 200 | 0.0 | 1.0 | 0.00 | 0.00 | 0.00 | 94 | 1015.7 |
| 20260902061518 | 70 | 306 | 0.0 | 0.0 | 0.00 | 0.00 | 0.00 | 94 | 1015.9 |
| 20260902060017 | 70 | 306 | 0.0 | 0.0 | 0.00 | 0.00 | 0.00 | 94 | 1015.9 |
| 20260902054517 | 70 | 306 | 0.0 | 0.0 | 0.00 | 0.00 | 0.00 | 94 | 1016.1 |